Time;durP1;ratioP1;P1;durP2;ratioP2;P2;SDS_P1;SDS_P2;PMS_P1;PMS_P2;Temp;Humidity;BMP_temperature;BMP_pressure;BME280_temperature;BME280_humidity;BME280_pressure;Samples;Min_cycle;Max_cycle;Signal;HPM_P1;HPM_P2
2022/02/05 00:05:36;;;;;;;28.98;17.00;;;-0.70;64.10;;;;;;5064427;28;20040;-58
2022/02/05 00:43:15;;;;;;;31.50;17.38;;;-0.70;64.40;;;;;;5064805;28;20032;-59
2022/02/05 00:45:45;;;;;;;36.13;26.98;;;-0.80;64.40;;;;;;5061087;28;20472;-59
2022/02/05 00:48:13;;;;;;;33.40;16.90;;;-0.80;64.20;;;;;;5073430;28;20031;-58
2022/02/05 00:50:42;;;;;;;37.63;28.58;;;-0.80;64.00;;;;;;5073194;28;20377;-59
2022/02/05 00:53:23;;;;;;;40.47;30.55;;;-0.80;64.10;;;;;;5072869;28;20025;-59
2022/02/05 00:55:57;;;;;;;43.97;33.47;;;-0.80;63.90;;;;;;5070248;28;20028;-59
2022/02/05 00:58:23;;;;;;;42.40;21.30;;;-0.80;63.90;;;;;;5074352;28;20032;-59
2022/02/05 01:00:48;;;;;;;41.58;33.17;;;-0.90;63.80;;;;;;5076304;28;20377;-59
2022/02/05 01:03:14;;;;;;;43.97;33.05;;;-0.90;64.00;;;;;;5073371;28;20111;-59
2022/02/05 01:05:42;;;;;;;42.10;33.75;;;-0.80;64.00;;;;;;5072840;28;20056;-58
2022/02/05 01:08:08;;;;;;;43.30;33.78;;;-0.80;63.90;;;;;;5072937;28;20024;-59
2022/02/05 01:10:34;;;;;;;43.75;34.33;;;-0.80;63.80;;;;;;5074757;28;20036;-59
2022/02/05 01:13:05;;;;;;;37.75;21.85;;;-0.80;63.80;;;;;;5078281;28;20039;-59
2022/02/05 01:15:40;;;;;;;30.63;16.97;;;-0.90;64.00;;;;;;5068473;28;20020;-59
2022/02/05 01:18:07;;;;;;;42.90;31.58;;;-1.00;64.00;;;;;;5072621;28;20732;-58
2022/02/05 01:23:06;;;;;;;42.17;32.25;;;-1.00;64.10;;;;;;5064692;28;20047;-59
2022/02/05 01:25:37;;;;;;;46.03;32.75;;;-1.00;64.10;;;;;;5072472;28;20033;-59
2022/02/05 01:28:20;;;;;;;41.33;31.77;;;-1.10;64.10;;;;;;5063617;28;20470;-59
2022/02/05 01:30:50;;;;;;;42.97;31.70;;;-1.10;64.20;;;;;;5072963;28;20028;-59
2022/02/05 01:52:32;;;;;;;36.80;20.70;;;-1.20;64.50;;;;;;5072374;28;20147;-57
2022/02/05 01:55:33;;;;;;;43.95;32.63;;;-1.20;64.40;;;;;;5072403;28;20029;-59
2022/02/05 01:58:15;;;;;;;33.78;18.70;;;-1.20;64.60;;;;;;5061737;28;20033;-58
2022/02/05 02:19:50;;;;;;;32.85;19.00;;;-1.30;64.70;;;;;;5072380;28;20182;-58
2022/02/05 02:30:00;;;;;;;34.55;18.88;;;-1.50;65.00;;;;;;5067064;28;20039;-58
2022/02/05 02:32:26;;;;;;;34.40;26.02;;;-1.50;64.80;;;;;;5063338;28;20036;-58
2022/02/05 02:34:57;;;;;;;39.20;29.05;;;-1.50;64.80;;;;;;5072070;28;20044;-58
2022/02/05 02:37:33;;;;;;;38.13;28.70;;;-1.50;64.60;;;;;;5083284;28;20114;-58
2022/02/05 02:40:11;;;;;;;36.15;27.40;;;-1.40;64.50;;;;;;5073565;28;20025;-58
2022/02/05 02:42:42;;;;;;;30.90;18.17;;;-1.40;64.40;;;;;;5072162;28;20017;-59
2022/02/05 02:45:08;;;;;;;30.45;15.13;;;-1.50;64.30;;;;;;5066028;28;20028;-59
2022/02/05 02:47:35;;;;;;;36.30;27.75;;;-1.60;64.50;;;;;;5069055;28;20124;-58
2022/02/05 02:50:07;;;;;;;33.15;27.50;;;-1.50;64.60;;;;;;5072418;28;20036;-59
2022/02/05 02:58:05;;;;;;;34.00;25.80;;;-1.50;64.30;;;;;;5063459;28;20052;-58
2022/02/05 03:00:31;;;;;;;34.55;26.52;;;-1.50;64.60;;;;;;5060223;28;20035;-59
2022/02/05 03:02:57;;;;;;;39.90;29.20;;;-1.50;64.40;;;;;;5072236;28;20473;-58
2022/02/05 03:05:24;;;;;;;35.25;17.58;;;-1.50;64.30;;;;;;5080096;28;20364;-58
2022/02/05 03:07:50;;;;;;;35.97;28.45;;;-1.60;64.40;;;;;;5063814;28;20017;-59
2022/02/05 03:10:16;;;;;;;38.53;29.95;;;-1.60;64.60;;;;;;5059019;28;20021;-59
2022/02/05 03:12:45;;;;;;;34.03;18.00;;;-1.50;64.60;;;;;;5053730;28;20046;-59
2022/02/05 03:15:14;;;;;;;37.60;29.45;;;-1.60;64.60;;;;;;5066199;28;20024;-58
2022/02/05 03:17:52;;;;;;;32.25;17.35;;;-1.50;64.80;;;;;;5069270;28;20039;-58
2022/02/05 03:20:18;;;;;;;30.27;17.50;;;-1.60;64.60;;;;;;5067771;28;20040;-58
2022/02/05 03:22:43;;;;;;;29.08;17.05;;;-1.60;64.60;;;;;;5067463;28;20037;-57
2022/02/05 03:25:09;;;;;;;31.77;25.88;;;-1.60;64.90;;;;;;5065856;28;20024;-58
2022/02/05 03:27:35;;;;;;;27.52;16.58;;;-1.60;64.80;;;;;;5062894;28;20032;-58
2022/02/05 03:30:01;;;;;;;33.25;24.35;;;-1.60;64.50;;;;;;5069910;28;20025;-58
2022/02/05 03:32:27;;;;;;;33.95;25.63;;;-1.50;64.80;;;;;;5070130;28;20020;-58
2022/02/05 03:34:52;;;;;;;24.50;15.25;;;-1.50;64.70;;;;;;5068348;28;20123;-58
2022/02/05 03:37:19;;;;;;;31.58;24.88;;;-1.60;64.60;;;;;;5065341;28;20384;-58
2022/02/05 03:39:45;;;;;;;32.95;25.63;;;-1.50;64.80;;;;;;5066665;28;20029;-59
2022/02/05 03:42:11;;;;;;;26.33;15.57;;;-1.50;64.90;;;;;;5061017;28;20047;-58
2022/02/05 03:44:37;;;;;;;29.23;22.50;;;-1.60;64.70;;;;;;5066170;28;20036;-58
2022/02/05 03:47:03;;;;;;;30.15;24.00;;;-1.60;64.90;;;;;;5068444;28;20028;-58
2022/02/05 03:49:29;;;;;;;29.25;16.20;;;-1.60;64.70;;;;;;5061368;28;20384;-58
2022/02/05 03:51:55;;;;;;;29.83;22.65;;;-1.60;64.60;;;;;;5064497;28;20379;-58
2022/02/05 03:54:23;;;;;;;29.33;22.20;;;-1.60;64.80;;;;;;5064230;28;20040;-58
2022/02/05 03:56:50;;;;;;;32.13;25.13;;;-1.60;64.70;;;;;;5064487;28;20497;-58
2022/02/05 03:59:16;;;;;;;31.25;15.88;;;-1.60;64.50;;;;;;5065512;28;20388;-58
2022/02/05 04:01:42;;;;;;;35.45;28.45;;;-1.70;64.40;;;;;;5069894;28;20024;-58
2022/02/05 04:04:08;;;;;;;32.80;17.88;;;-1.80;64.60;;;;;;5061787;28;20033;-56
2022/02/05 04:06:33;;;;;;;37.95;25.90;;;-1.90;64.70;;;;;;5066216;28;20112;-58
2022/02/05 04:09:04;;;;;;;36.17;27.30;;;-1.90;65.00;;;;;;5069518;28;20024;-58
2022/02/05 04:11:45;;;;;;;25.35;14.80;;;-1.90;65.00;;;;;;5066318;28;20082;-58
2022/02/05 04:16:54;;;;;;;40.60;36.30;;;-1.90;65.30;;;;;;5071103;28;20036;-56
2022/02/05 04:19:20;;;;;;;42.20;36.38;;;-1.90;65.40;;;;;;5064436;28;20024;-58
2022/02/05 04:21:47;;;;;;;30.30;19.20;;;-1.90;65.40;;;;;;5065304;28;20039;-58
2022/02/05 04:24:13;;;;;;;36.20;30.15;;;-1.90;65.30;;;;;;5061780;28;20025;-58
2022/02/05 04:26:38;;;;;;;29.88;18.00;;;-1.90;65.50;;;;;;5067910;28;20082;-58
2022/02/05 04:29:09;;;;;;;33.17;27.88;;;-1.90;65.40;;;;;;5064497;28;20032;-58
2022/02/05 04:31:35;;;;;;;34.92;27.50;;;-1.80;65.60;;;;;;5063382;28;20021;-58
2022/02/05 04:34:01;;;;;;;29.30;17.02;;;-1.70;65.60;;;;;;5063156;28;20040;-58
2022/02/05 04:36:27;;;;;;;47.75;35.08;;;-1.80;65.30;;;;;;5068782;28;20473;-58
2022/02/05 04:38:54;;;;;;;42.75;34.80;;;-1.80;65.10;;;;;;5066760;28;20028;-58
2022/02/05 04:42:13;;;;;;;42.53;21.70;;;-1.80;65.00;;;;;;5068738;28;20033;-58
2022/02/05 04:49:39;;;;;;;40.70;20.30;;;-1.90;65.50;;;;;;5064516;28;20109;-57
2022/02/05 05:00:49;;;;;;;38.97;25.33;;;-1.70;65.80;;;;;;4985225;28;20042;-58
2022/02/05 05:05:44;;;;;;;30.58;20.35;;;-1.70;65.40;;;;;;5033123;28;20071;-58
2022/02/05 05:08:35;;;;;;;31.88;20.92;;;-1.60;65.50;;;;;;5067425;28;20112;-58
2022/02/05 05:21:44;;;;;;;31.23;22.63;;;-1.50;65.30;;;;;;5064793;28;20040;-58
2022/02/05 05:24:10;;;;;;;35.67;24.27;;;-1.40;65.40;;;;;;5064414;28;20496;-58
2022/02/05 05:26:37;;;;;;;33.95;24.02;;;-1.30;65.00;;;;;;5066967;28;20029;-58
2022/02/05 05:29:03;;;;;;;36.70;25.08;;;-1.20;65.00;;;;;;5070804;28;20024;-58
2022/02/05 05:31:29;;;;;;;36.78;24.58;;;-1.10;64.80;;;;;;5069589;28;20037;-58
2022/02/05 05:33:55;;;;;;;35.85;16.33;;;-0.90;64.70;;;;;;5061106;28;20098;-58
2022/02/05 05:36:20;;;;;;;39.58;25.52;;;-0.90;64.60;;;;;;5062670;28;20027;-58
2022/02/05 05:38:46;;;;;;;41.90;26.92;;;-0.80;64.70;;;;;;5061339;28;20143;-58
2022/02/05 05:41:12;;;;;;;41.28;17.13;;;-0.70;64.60;;;;;;5064720;28;20055;-58
2022/02/05 05:43:51;;;;;;;48.88;31.13;;;-0.70;64.50;;;;;;5058689;28;20507;-58
2022/02/05 05:46:30;;;;;;;50.53;32.67;;;-0.70;64.40;;;;;;5065358;28;20092;-58
2022/02/05 05:48:59;;;;;;;57.92;35.33;;;-0.50;64.30;;;;;;5070970;28;20029;-58
2022/02/05 05:51:25;;;;;;;49.80;35.90;;;-0.40;64.10;;;;;;5069024;28;20024;-58
2022/02/05 05:53:51;;;;;;;52.13;24.33;;;-0.30;64.10;;;;;;5061380;28;20088;-58
2022/02/05 05:56:22;;;;;;;48.60;22.30;;;-0.30;63.80;;;;;;5060547;28;20028;-59
2022/02/05 05:58:48;;;;;;;50.03;22.58;;;-0.30;64.00;;;;;;5064997;28;20028;-58
2022/02/05 06:01:15;;;;;;;48.40;33.38;;;-0.30;64.10;;;;;;5066121;28;20033;-59
2022/02/05 06:03:41;;;;;;;43.83;31.27;;;-0.20;63.90;;;;;;5062717;28;20029;-58
2022/02/05 06:06:06;;;;;;;45.13;31.05;;;-0.10;63.30;;;;;;5058922;28;20024;-58
2022/02/05 06:08:32;;;;;;;45.05;31.30;;;0.00;62.90;;;;;;5061920;28;20024;-59
2022/02/05 06:10:58;;;;;;;42.42;30.52;;;0.00;62.60;;;;;;5062477;28;20056;-58
2022/02/05 06:13:23;;;;;;;46.15;21.25;;;0.00;62.50;;;;;;5065889;28;20028;-59
2022/02/05 06:15:51;;;;;;;35.20;18.20;;;0.00;62.30;;;;;;5060276;28;20021;-59
2022/02/05 06:18:17;;;;;;;31.52;16.15;;;-0.10;62.50;;;;;;5060518;28;20027;-58
2022/02/05 06:20:43;;;;;;;45.15;30.63;;;-0.20;62.70;;;;;;5066552;28;20020;-59
2022/02/05 06:23:09;;;;;;;35.20;18.65;;;-0.10;62.90;;;;;;5065805;28;20025;-58
2022/02/05 06:25:38;;;;;;;29.90;17.13;;;-0.10;62.70;;;;;;5063235;28;20025;-58
2022/02/05 06:28:04;;;;;;;35.92;25.27;;;-0.20;62.90;;;;;;5063143;28;20388;-58
2022/02/05 06:30:30;;;;;;;26.23;14.82;;;-0.10;62.90;;;;;;5062574;28;20035;-58
2022/02/05 06:32:56;;;;;;;31.40;14.60;;;-0.10;62.70;;;;;;5063453;28;20036;-58
2022/02/05 06:35:21;;;;;;;24.73;14.52;;;-0.10;62.90;;;;;;5066124;28;20044;-58
2022/02/05 06:37:47;;;;;;;21.23;12.48;;;-0.10;63.10;;;;;;5066362;28;20024;-58
2022/02/05 06:40:13;;;;;;;27.25;14.43;;;0.00;63.30;;;;;;5059698;28;20020;-59
2022/02/05 06:42:39;;;;;;;18.85;10.48;;;0.00;63.10;;;;;;5067532;28;20030;-58
2022/02/05 06:45:05;;;;;;;24.20;17.98;;;0.00;63.00;;;;;;5064686;28;20043;-58
2022/02/05 06:47:31;;;;;;;22.70;13.23;;;0.10;62.60;;;;;;5067217;28;20036;-59
2022/02/05 06:49:57;;;;;;;24.63;17.63;;;0.10;62.50;;;;;;5069262;28;20025;-58
2022/02/05 06:52:23;;;;;;;30.67;21.48;;;0.20;62.30;;;;;;5065030;28;20558;-59
2022/02/05 06:54:49;;;;;;;24.83;13.88;;;0.20;61.80;;;;;;5072237;28;20058;-59
2022/02/05 06:57:14;;;;;;;24.90;13.15;;;0.20;61.80;;;;;;5069202;28;20107;-58
2022/02/05 06:59:40;;;;;;;29.25;13.55;;;0.20;62.10;;;;;;5068152;28;20024;-58
2022/02/05 07:02:05;;;;;;;25.65;12.73;;;0.20;62.40;;;;;;5065276;28;20052;-58
2022/02/05 07:04:31;;;;;;;28.05;20.30;;;0.20;62.30;;;;;;5069112;28;20024;-58
2022/02/05 07:06:58;;;;;;;24.90;12.52;;;0.40;62.20;;;;;;5070775;28;20025;-59
2022/02/05 07:09:26;;;;;;;23.23;12.68;;;0.40;62.00;;;;;;5068413;28;20029;-58
2022/02/05 07:11:55;;;;;;;25.77;13.38;;;0.40;62.10;;;;;;5066326;28;20025;-59
2022/02/05 07:14:24;;;;;;;23.05;13.65;;;0.50;62.30;;;;;;5066800;28;20437;-58
2022/02/05 07:17:03;;;;;;;30.48;22.10;;;0.60;62.20;;;;;;5066226;28;20036;-59
2022/02/05 07:19:46;;;;;;;30.30;15.27;;;0.70;61.90;;;;;;5062779;28;20032;-59
2022/02/05 07:22:12;;;;;;;36.40;25.13;;;0.70;61.80;;;;;;5066153;28;20028;-58
2022/02/05 07:30:08;;;;;;;38.97;24.80;;;0.80;62.20;;;;;;5071435;28;20523;-58
2022/02/05 07:32:34;;;;;;;36.67;19.35;;;0.90;61.50;;;;;;5082211;28;20028;-59
2022/02/05 07:35:00;;;;;;;44.45;19.55;;;0.90;61.40;;;;;;5069919;28;20459;-59
2022/02/05 07:37:26;;;;;;;36.65;20.58;;;1.00;61.70;;;;;;5080926;28;20020;-59
2022/02/05 07:39:52;;;;;;;44.45;30.67;;;1.00;61.90;;;;;;5081340;28;20021;-59
2022/02/05 07:42:18;;;;;;;39.55;19.20;;;1.10;61.50;;;;;;5077028;28;20021;-58
2022/02/05 07:44:46;;;;;;;40.70;19.08;;;1.20;61.40;;;;;;5069074;28;20017;-59
2022/02/05 07:47:12;;;;;;;49.65;33.80;;;1.20;61.40;;;;;;5065003;28;20111;-58
2022/02/05 07:49:41;;;;;;;43.10;21.00;;;1.30;61.30;;;;;;5072780;28;20651;-58
2022/02/05 07:52:08;;;;;;;40.63;19.02;;;1.30;61.10;;;;;;5066767;28;20058;-58
2022/02/05 07:54:34;;;;;;;33.78;25.05;;;1.30;61.30;;;;;;5067749;28;20020;-59
2022/02/05 07:57:00;;;;;;;29.63;15.90;;;1.40;60.90;;;;;;5073682;28;20070;-58
2022/02/05 07:59:26;;;;;;;24.85;13.88;;;1.40;60.60;;;;;;5066526;28;20417;-59
2022/02/05 08:01:52;;;;;;;22.30;12.48;;;1.40;60.80;;;;;;5067673;28;20032;-59
2022/02/05 08:04:18;;;;;;;26.55;18.67;;;1.40;60.70;;;;;;5064768;28;20025;-59
2022/02/05 08:06:45;;;;;;;20.70;13.20;;;1.50;60.40;;;;;;5062762;28;20392;-58
2022/02/05 08:09:25;;;;;;;28.25;13.02;;;1.50;60.20;;;;;;5059853;28;20028;-58
2022/02/05 08:14:19;;;;;;;24.02;18.20;;;1.60;60.20;;;;;;5062186;28;20039;-58
2022/02/05 08:19:10;;;;;;;20.90;11.65;;;1.70;59.70;;;;;;5065662;28;20024;-59
2022/02/05 08:21:36;;;;;;;17.42;10.98;;;1.60;59.90;;;;;;5064200;28;20051;-59
2022/02/05 08:24:02;;;;;;;36.35;15.77;;;1.70;60.00;;;;;;5069601;28;20043;-59
2022/02/05 08:26:29;;;;;;;35.83;24.10;;;1.60;60.10;;;;;;5059239;28;20040;-58
2022/02/05 08:28:56;;;;;;;41.13;18.35;;;1.70;60.10;;;;;;5059989;28;20067;-58
2022/02/05 08:31:22;;;;;;;46.35;20.65;;;1.70;60.10;;;;;;5061200;28;20074;-59
2022/02/05 08:33:48;;;;;;;44.30;20.35;;;1.70;60.30;;;;;;5061151;28;20472;-58
2022/02/05 08:36:16;;;;;;;52.40;35.95;;;1.70;60.40;;;;;;5062766;28;20036;-58
2022/02/05 08:38:42;;;;;;;61.22;39.33;;;1.90;60.30;;;;;;5061015;28;20073;-59
2022/02/05 08:41:07;;;;;;;56.92;27.88;;;2.00;59.80;;;;;;5061735;28;20119;-59
2022/02/05 08:43:33;;;;;;;54.38;22.75;;;1.90;59.70;;;;;;5066008;28;20032;-59
2022/02/05 08:45:59;;;;;;;38.47;20.40;;;1.90;59.90;;;;;;5062237;28;20027;-58
2022/02/05 08:48:25;;;;;;;46.10;30.65;;;1.90;60.00;;;;;;5064006;28;20025;-59
2022/02/05 08:50:52;;;;;;;43.40;19.83;;;2.00;60.00;;;;;;5044502;28;20064;-59
2022/02/05 08:53:21;;;;;;;31.85;17.10;;;2.00;59.90;;;;;;5064686;28;20064;-59
2022/02/05 08:55:52;;;;;;;37.22;16.35;;;2.00;59.80;;;;;;5058839;28;20024;-59
2022/02/05 08:58:18;;;;;;;32.28;23.65;;;2.00;60.10;;;;;;5054636;28;20033;-61
2022/02/05 09:00:47;;;;;;;30.40;15.63;;;2.00;60.10;;;;;;5059753;28;20496;-59
2022/02/05 09:03:35;;;;;;;27.90;13.52;;;1.90;59.80;;;;;;5063888;28;20029;-59
2022/02/05 09:06:02;;;;;;;27.98;14.65;;;1.90;60.00;;;;;;5045918;28;20029;-59
2022/02/05 09:08:40;;;;;;;32.25;23.23;;;1.90;60.20;;;;;;5062624;28;20017;-59
2022/02/05 09:11:17;;;;;;;35.28;17.00;;;2.00;60.40;;;;;;5063443;28;20080;-59
2022/02/05 09:16:12;;;;;;;28.85;14.32;;;2.10;60.30;;;;;;5061529;28;20029;-58
2022/02/05 09:18:40;;;;;;;32.22;15.20;;;2.10;60.20;;;;;;5059960;28;20021;-59
2022/02/05 09:21:06;;;;;;;21.13;12.50;;;2.20;60.30;;;;;;5060722;28;20064;-58
2022/02/05 09:23:32;;;;;;;22.30;12.07;;;2.20;60.20;;;;;;5062170;28;20028;-59
2022/02/05 09:25:59;;;;;;;27.92;12.57;;;2.30;60.00;;;;;;5058096;28;20066;-58
2022/02/05 09:28:28;;;;;;;25.67;16.63;;;2.20;59.90;;;;;;5062914;28;20024;-61
2022/02/05 09:33:31;;;;;;;16.85;9.60;;;2.30;59.40;;;;;;5059366;28;20047;-60
2022/02/05 09:35:57;;;;;;;18.95;10.10;;;2.30;59.60;;;;;;5063738;28;20028;-60
2022/02/05 09:38:22;;;;;;;18.52;14.40;;;2.30;59.60;;;;;;5063212;28;20033;-59
2022/02/05 09:40:48;;;;;;;16.55;9.20;;;2.40;59.40;;;;;;5063281;28;20016;-59
2022/02/05 09:43:17;;;;;;;17.40;8.68;;;2.40;58.90;;;;;;5060326;28;20062;-60
2022/02/05 09:45:43;;;;;;;15.65;13.05;;;2.40;59.20;;;;;;5059538;28;20055;-60
2022/02/05 09:48:08;;;;;;;14.32;9.50;;;2.40;58.90;;;;;;5063800;28;20083;-60
2022/02/05 09:50:36;;;;;;;18.65;9.18;;;2.40;58.90;;;;;;5060373;28;20038;-59
2022/02/05 09:53:14;;;;;;;19.17;14.43;;;2.40;59.00;;;;;;5060865;28;20292;-60
2022/02/05 09:55:44;;;;;;;14.25;8.45;;;2.50;58.80;;;;;;5063399;28;20072;-59
2022/02/05 09:58:10;;;;;;;15.32;8.35;;;2.50;58.60;;;;;;5060181;28;20527;-60
2022/02/05 10:00:36;;;;;;;15.52;12.77;;;2.50;58.80;;;;;;5062412;28;20392;-60
2022/02/05 10:03:03;;;;;;;16.88;9.43;;;2.60;58.50;;;;;;5060604;28;20109;-60
2022/02/05 10:05:34;;;;;;;11.35;6.80;;;2.60;58.10;;;;;;5061164;28;20202;-59
2022/02/05 10:08:03;;;;;;;13.93;8.90;;;2.60;58.30;;;;;;5061341;28;20025;-60
2022/02/05 10:10:42;;;;;;;16.38;7.88;;;2.50;58.30;;;;;;5060650;28;20055;-60
2022/02/05 10:13:18;;;;;;;24.13;14.07;;;2.60;58.40;;;;;;5059000;28;20120;-59
2022/02/05 10:15:50;;;;;;;23.17;17.25;;;2.70;58.40;;;;;;5056904;28;20045;-60
2022/02/05 10:18:45;;;;;;;19.60;11.30;;;2.70;57.80;;;;;;5065817;28;20488;-60
2022/02/05 10:21:20;;;;;;;22.15;11.32;;;2.70;57.90;;;;;;5061222;28;20033;-61
2022/02/05 10:24:09;;;;;;;23.50;12.27;;;2.70;57.80;;;;;;5058831;28;20020;-59
2022/02/05 10:26:43;;;;;;;27.83;13.02;;;2.70;57.90;;;;;;5064993;28;20044;-59
2022/02/05 10:29:11;;;;;;;35.20;21.80;;;2.60;58.00;;;;;;5054662;28;20020;-59
2022/02/05 10:31:59;;;;;;;29.95;14.05;;;2.70;58.00;;;;;;5058407;28;20564;-59
2022/02/05 10:34:26;;;;;;;27.88;17.15;;;2.70;57.90;;;;;;5060326;28;20048;-60
2022/02/05 10:37:09;;;;;;;34.75;21.73;;;2.70;57.80;;;;;;5069805;28;20071;-60
2022/02/05 10:39:53;;;;;;;23.48;11.70;;;2.80;57.60;;;;;;5065873;28;20395;-60
2022/02/05 10:45:06;;;;;;;15.50;8.93;;;2.80;57.70;;;;;;5059424;28;20077;-60
2022/02/05 10:47:53;;;;;;;13.25;10.60;;;2.80;57.90;;;;;;5065673;28;20029;-60
2022/02/05 10:50:22;;;;;;;12.38;6.70;;;2.90;57.80;;;;;;5064640;28;20629;-61
2022/02/05 10:53:05;;;;;;;11.65;9.48;;;2.80;57.90;;;;;;5065366;28;20472;-60
2022/02/05 10:55:59;;;;;;;13.45;6.90;;;2.90;57.90;;;;;;5060352;28;20028;-60
2022/02/05 10:58:46;;;;;;;11.52;6.05;;;2.80;57.90;;;;;;5064786;28;20085;-60
2022/02/05 11:07:06;;;;;;;11.30;7.53;;;2.70;58.40;;;;;;5060218;28;20047;-60
2022/02/05 11:09:32;;;;;;;13.57;9.73;;;2.60;58.70;;;;;;5064534;28;20455;-60
2022/02/05 11:20:03;;;;;;;13.18;9.80;;;2.80;59.40;;;;;;5063520;28;20029;-60
2022/02/05 11:22:32;;;;;;;12.82;10.13;;;2.90;59.80;;;;;;5064908;28;20032;-59
2022/02/05 11:25:00;;;;;;;12.80;7.95;;;3.00;59.60;;;;;;5061033;28;20025;-61
2022/02/05 11:27:26;;;;;;;11.50;7.57;;;3.00;59.50;;;;;;5067877;28;20025;-60
2022/02/05 11:29:53;;;;;;;13.65;11.68;;;3.00;59.70;;;;;;5062173;28;20017;-59
2022/02/05 11:32:31;;;;;;;15.32;8.68;;;3.00;60.20;;;;;;5066942;28;20021;-59
2022/02/05 11:35:10;;;;;;;9.68;6.05;;;3.10;60.30;;;;;;5059326;28;20032;-59
2022/02/05 11:37:56;;;;;;;13.30;10.48;;;3.10;60.40;;;;;;5068849;28;20071;-59
2022/02/05 11:40:46;;;;;;;13.07;6.65;;;3.10;60.70;;;;;;5065567;28;20544;-59
2022/02/05 11:43:18;;;;;;;13.65;11.27;;;3.10;60.70;;;;;;5065920;28;20029;-59
2022/02/05 11:45:44;;;;;;;11.18;7.03;;;3.20;61.10;;;;;;5064632;28;20029;-59
2022/02/05 11:48:41;;;;;;;10.80;7.47;;;3.10;61.10;;;;;;5067387;28;20526;-60
2022/02/05 11:51:19;;;;;;;11.18;7.35;;;3.10;61.30;;;;;;5066402;28;20048;-58
2022/02/05 11:54:00;;;;;;;12.35;7.28;;;3.10;61.50;;;;;;5064505;28;20485;-60
2022/02/05 11:59:21;;;;;;;15.35;8.45;;;3.00;61.90;;;;;;5061940;28;20139;-59
2022/02/05 12:01:48;;;;;;;10.90;7.78;;;3.00;62.20;;;;;;5065257;28;22299;-60
2022/02/05 12:04:21;;;;;;;13.80;10.30;;;3.10;62.50;;;;;;5067421;28;20028;-59
2022/02/05 12:06:59;;;;;;;13.80;7.65;;;3.20;63.00;;;;;;5062978;28;20470;-58
2022/02/05 12:09:33;;;;;;;11.95;7.85;;;3.20;62.80;;;;;;5063063;28;20082;-59
2022/02/05 12:12:45;;;;;;;14.75;11.27;;;3.20;62.80;;;;;;5068614;28;20028;-60
2022/02/05 12:15:14;;;;;;;12.57;8.27;;;3.10;63.40;;;;;;5061078;28;20013;-59
2022/02/05 12:17:59;;;;;;;12.45;7.57;;;3.00;63.30;;;;;;5066164;28;20119;-60
2022/02/05 12:20:31;;;;;;;12.00;7.40;;;3.00;63.70;;;;;;5060068;28;20143;-60
2022/02/05 12:23:27;;;;;;;13.88;7.75;;;3.00;63.90;;;;;;5064959;28;20030;-59
2022/02/05 12:25:59;;;;;;;13.07;10.00;;;3.00;64.00;;;;;;5061104;28;20051;-60
2022/02/05 12:28:30;;;;;;;;;;;3.00;64.50;;;;;;5068854;28;20047;-59
2022/02/05 12:30:57;;;;;;;14.95;7.07;;;2.90;64.80;;;;;;5063114;28;19915;-59
2022/02/05 12:33:23;;;;;;;9.38;6.57;;;2.90;64.20;;;;;;5062992;28;20062;-59
2022/02/05 12:35:55;;;;;;;13.23;10.13;;;2.80;64.30;;;;;;5065170;28;20480;-59
2022/02/05 12:38:20;;;;;;;15.57;11.95;;;2.80;65.00;;;;;;5065843;28;20032;-59
2022/02/05 12:40:49;;;;;;;15.25;8.88;;;2.90;65.50;;;;;;5060247;28;20116;-59
2022/02/05 12:43:16;;;;;;;14.50;12.38;;;2.80;65.20;;;;;;5056502;28;20037;-59
2022/02/05 12:45:55;;;;;;;21.30;12.52;;;2.80;65.70;;;;;;5067755;28;20016;-59
2022/02/05 12:48:24;;;;;;;14.48;12.35;;;2.80;65.60;;;;;;5064956;28;20033;-59
2022/02/05 12:50:50;;;;;;;13.20;8.10;;;2.80;66.10;;;;;;5067503;28;20055;-59
2022/02/05 12:53:28;;;;;;;14.05;12.60;;;2.80;65.70;;;;;;5065908;28;20052;-58
2022/02/05 12:55:53;;;;;;;12.25;8.07;;;2.80;66.30;;;;;;5064406;28;20047;-59
2022/02/05 12:58:19;;;;;;;13.13;7.43;;;2.70;66.00;;;;;;5065000;28;20116;-60
2022/02/05 13:01:03;;;;;;;15.38;8.02;;;2.70;66.30;;;;;;5063913;28;20123;-59
2022/02/05 13:03:30;;;;;;;13.85;7.57;;;2.70;66.60;;;;;;5061602;28;20033;-59
2022/02/05 13:05:56;;;;;;;15.73;9.02;;;2.70;66.60;;;;;;5060711;28;20072;-59
2022/02/05 13:08:21;;;;;;;26.45;16.77;;;2.60;66.40;;;;;;5063518;28;20056;-60
2022/02/05 13:10:49;;;;;;;21.63;11.38;;;2.70;66.80;;;;;;5062701;28;20078;-60
2022/02/05 13:13:14;;;;;;;26.73;17.35;;;2.60;66.70;;;;;;5071227;28;20029;-59
2022/02/05 13:15:40;;;;;;;38.70;22.10;;;2.60;67.00;;;;;;5069177;28;20059;-59
2022/02/05 13:36:25;;;;;;;14.32;8.55;;;2.70;67.90;;;;;;5064367;28;20040;-60
2022/02/05 13:41:49;;;;;;;13.40;7.97;;;2.60;67.60;;;;;;5073057;28;20529;-60
2022/02/05 13:44:20;;;;;;;12.00;7.32;;;2.60;67.70;;;;;;5072915;28;20036;-59
2022/02/05 13:47:07;;;;;;;14.00;7.22;;;2.60;67.70;;;;;;5070018;28;20112;-60
2022/02/05 13:49:34;;;;;;;13.05;6.93;;;2.50;67.70;;;;;;5065471;28;20098;-60
2022/02/05 13:52:07;;;;;;;13.65;11.20;;;2.50;67.90;;;;;;5067308;28;20084;-60
2022/02/05 13:54:34;;;;;;;13.85;8.13;;;2.50;68.20;;;;;;5053143;28;20025;-59
2022/02/05 13:57:01;;;;;;;13.18;7.70;;;2.50;68.10;;;;;;5053042;28;20098;-59
2022/02/05 13:59:28;;;;;;;13.15;6.93;;;2.40;68.10;;;;;;5063972;28;20029;-60
2022/02/05 14:01:54;;;;;;;12.20;10.23;;;2.40;68.20;;;;;;5072783;28;20041;-59
2022/02/05 14:04:23;;;;;;;11.85;7.25;;;2.40;68.40;;;;;;5074917;28;20448;-59
2022/02/05 14:06:59;;;;;;;11.57;7.50;;;2.40;68.40;;;;;;5074671;28;20064;-59
2022/02/05 14:09:25;;;;;;;13.02;9.57;;;2.30;68.30;;;;;;5052595;28;20021;-60
2022/02/05 14:11:51;;;;;;;13.20;7.70;;;2.40;69.30;;;;;;5063926;28;20043;-59
2022/02/05 14:14:26;;;;;;;13.38;7.40;;;2.40;68.50;;;;;;5072350;28;20020;-60
2022/02/05 14:16:52;;;;;;;14.82;11.65;;;2.30;68.40;;;;;;5072546;28;20021;-59
2022/02/05 14:19:22;;;;;;;14.55;12.43;;;2.40;68.90;;;;;;5072531;28;20033;-59
2022/02/05 14:21:49;;;;;;;13.50;8.00;;;2.40;69.10;;;;;;5072479;28;20082;-60
2022/02/05 14:24:24;;;;;;;13.35;7.88;;;2.40;68.90;;;;;;5084969;28;20028;-59
2022/02/05 14:27:05;;;;;;;13.98;7.13;;;2.40;68.90;;;;;;5072635;28;20484;-59
2022/02/05 14:32:43;;;;;;;11.40;5.82;;;2.40;69.00;;;;;;5072659;28;20064;-59
2022/02/05 14:42:37;;;;;;;14.80;7.43;;;2.40;68.80;;;;;;5072370;28;20093;-60
2022/02/05 14:45:03;;;;;;;12.38;7.20;;;2.40;68.90;;;;;;5071356;28;20439;-60
2022/02/05 14:47:29;;;;;;;10.35;6.75;;;2.40;69.00;;;;;;5064798;28;20052;-59
2022/02/05 14:49:55;;;;;;;9.77;7.07;;;2.30;68.90;;;;;;5072177;28;20108;-60
2022/02/05 14:52:21;;;;;;;10.68;6.38;;;2.30;69.10;;;;;;5072041;28;20456;-59
2022/02/05 14:54:47;;;;;;;14.32;10.90;;;2.30;69.20;;;;;;5072335;28;20024;-59
2022/02/05 14:57:13;;;;;;;15.57;8.80;;;2.30;69.40;;;;;;5079578;28;20472;-59
2022/02/05 14:59:39;;;;;;;15.07;7.93;;;2.30;69.20;;;;;;5071297;28;20028;-59
2022/02/05 15:02:07;;;;;;;15.18;12.68;;;2.30;69.40;;;;;;5070886;28;20031;-59
2022/02/05 15:04:33;;;;;;;15.18;8.90;;;2.30;69.80;;;;;;5061444;28;20029;-59
2022/02/05 15:06:59;;;;;;;13.38;8.10;;;2.30;69.60;;;;;;5071360;28;20040;-59
2022/02/05 15:09:24;;;;;;;13.38;8.18;;;2.30;69.70;;;;;;5059693;28;20035;-59
2022/02/05 15:11:50;;;;;;;15.38;12.90;;;2.30;69.60;;;;;;5073600;28;20031;-59
2022/02/05 15:14:17;;;;;;;14.88;9.18;;;2.40;69.90;;;;;;5075709;28;20483;-59
2022/02/05 15:16:43;;;;;;;10.30;7.18;;;2.40;69.70;;;;;;5067521;28;20095;-59
2022/02/05 15:19:08;;;;;;;10.45;6.82;;;2.40;69.70;;;;;;5070674;28;20024;-59
2022/02/05 15:21:36;;;;;;;12.32;6.63;;;2.40;69.60;;;;;;5075522;28;20059;-60
2022/02/05 15:24:03;;;;;;;14.23;10.27;;;2.40;69.70;;;;;;5074741;28;20024;-60
2022/02/05 15:26:32;;;;;;;16.23;12.15;;;2.40;70.10;;;;;;5075296;28;20029;-60
2022/02/05 15:28:58;;;;;;;13.38;7.40;;;2.40;70.30;;;;;;5077293;28;20114;-59
2022/02/05 15:31:24;;;;;;;12.30;7.15;;;2.40;70.20;;;;;;5067273;28;20033;-59
2022/02/05 15:33:54;;;;;;;14.07;11.30;;;2.30;70.30;;;;;;5074952;28;20098;-59
2022/02/05 15:36:27;;;;;;;10.95;7.68;;;2.30;70.90;;;;;;5071546;28;20017;-59
2022/02/05 15:44:03;;;;;;;13.85;9.48;;;2.20;71.30;;;;;;5074736;28;20543;-60
2022/02/05 15:46:29;;;;;;;18.48;15.15;;;2.20;71.00;;;;;;5075190;28;20107;-60
2022/02/05 15:48:54;;;;;;;18.25;10.77;;;2.20;71.50;;;;;;5070545;28;20025;-59
2022/02/05 15:51:22;;;;;;;20.23;9.52;;;2.10;71.40;;;;;;5055371;28;20067;-59
2022/02/05 15:53:55;;;;;;;12.50;7.68;;;2.10;71.50;;;;;;5055005;28;20051;-59
2022/02/05 15:56:45;;;;;;;13.00;11.15;;;2.10;71.60;;;;;;5055314;28;20025;-59
2022/02/05 15:59:14;;;;;;;15.32;12.82;;;2.10;71.90;;;;;;5059125;28;20373;-59
2022/02/05 16:01:39;;;;;;;15.70;8.18;;;2.20;72.00;;;;;;5071093;28;20530;-59
2022/02/05 16:04:06;;;;;;;11.65;7.78;;;2.10;71.90;;;;;;5086974;28;20024;-59